Time,TemperatureF,DewpointF,PressureIn,WindDirection,WindDirectionDegrees,WindSpeedMPH,WindSpeedGustMPH,Humidity,HourlyPrecipIn,Conditions,Clouds,dailyrainin,SoftwareType,DateUTC
2013-03-04 00:00:00,33.1,25.4,29.64,WNW,297,3.0,3.0,73,0.00,,,0.00,Wunderground v.1.15,2013-03-04 05:00:00,
2013-03-04 00:05:00,33.0,25.3,29.64,NNW,330,3.0,3.0,73,0.00,,,0.00,Wunderground v.1.15,2013-03-04 05:05:00,
2013-03-04 00:10:00,32.9,25.2,29.64,NNE,19,3.0,3.0,73,0.00,,,0.00,Wunderground v.1.15,2013-03-04 05:10:00,
2013-03-04 00:15:00,32.8,25.1,29.64,West,259,2.0,3.0,73,0.00,,,0.00,Wunderground v.1.15,2013-03-04 05:15:00,
2013-03-04 00:25:00,32.7,25.3,29.64,West,270,3.0,3.0,74,0.00,,,0.00,Wunderground v.1.15,2013-03-04 05:25:00,
2013-03-04 00:30:00,32.6,25.2,29.64,ENE,64,3.0,5.0,74,0.00,,,0.00,Wunderground v.1.15,2013-03-04 05:30:00,
2013-03-04 00:40:00,32.5,25.1,29.63,WSW,256,3.0,4.0,74,0.00,,,0.00,Wunderground v.1.15,2013-03-04 05:40:00,
2013-03-04 00:50:00,32.5,25.1,29.63,West,276,3.0,3.0,74,0.00,,,0.00,Wunderground v.1.15,2013-03-04 05:50:00,
2013-03-04 01:00:00,32.4,25.0,29.64,WNW,284,2.0,5.0,74,0.00,,,0.00,Wunderground v.1.15,2013-03-04 06:00:00,
2013-03-04 01:05:00,32.4,25.0,29.64,WNW,292,3.0,6.0,74,0.00,,,0.00,Wunderground v.1.15,2013-03-04 06:05:00,
2013-03-04 01:15:00,32.3,24.9,29.64,West,259,3.0,4.0,74,0.00,,,0.00,Wunderground v.1.15,2013-03-04 06:15:00,
2013-03-04 01:25:00,32.1,25.1,29.64,West,276,3.0,5.0,75,0.00,,,0.00,Wunderground v.1.15,2013-03-04 06:25:00,
2013-03-04 01:35:00,32.0,25.0,29.64,WNW,295,2.0,5.0,75,0.00,,,0.00,Wunderground v.1.15,2013-03-04 06:35:00,
2013-03-04 01:40:00,31.9,24.9,29.64,West,269,2.0,3.0,75,0.00,,,0.00,Wunderground v.1.15,2013-03-04 06:40:00,
2013-03-04 01:50:00,31.8,24.8,29.64,WNW,303,2.0,2.0,75,0.00,,,0.00,Wunderground v.1.15,2013-03-04 06:50:00,
2013-03-04 02:00:00,31.7,24.7,29.64,NNW,333,2.0,6.0,75,0.00,,,0.00,Wunderground v.1.15,2013-03-04 07:00:00,
2013-03-04 02:10:00,31.5,24.5,29.64,South,176,3.0,3.0,75,0.00,,,0.00,Wunderground v.1.15,2013-03-04 07:10:00,
2013-03-04 02:19:00,31.3,24.6,29.64,NNW,338,2.0,4.0,76,0.00,,,0.00,Wunderground v.1.15,2013-03-04 07:19:00,
2013-03-04 02:25:00,31.2,24.5,29.64,NW,326,2.0,4.0,76,0.00,,,0.00,Wunderground v.1.15,2013-03-04 07:25:00,
2013-03-04 02:35:00,31.1,24.4,29.64,WSW,245,3.0,3.0,76,0.00,,,0.00,Wunderground v.1.15,2013-03-04 07:35:00,
2013-03-04 02:45:00,31.0,24.3,29.64,West,279,3.0,3.0,76,0.00,,,0.00,Wunderground v.1.15,2013-03-04 07:45:00,
2013-03-04 02:50:00,31.0,24.3,29.64,West,278,2.0,2.0,76,0.00,,,0.00,Wunderground v.1.15,2013-03-04 07:50:00,
2013-03-04 02:55:00,31.0,24.3,29.64,NW,304,2.0,2.0,76,0.00,,,0.00,Wunderground v.1.15,2013-03-04 07:55:00,
2013-03-04 03:05:00,31.0,24.3,29.64,WSW,253,2.0,4.0,76,0.00,,,0.00,Wunderground v.1.15,2013-03-04 08:05:00,
2013-03-04 03:10:00,31.1,24.4,29.64,West,273,3.0,3.0,76,0.00,,,0.00,Wunderground v.1.15,2013-03-04 08:10:00,
2013-03-04 03:20:00,31.1,24.4,29.64,NW,321,2.0,4.0,76,0.00,,,0.00,Wunderground v.1.15,2013-03-04 08:20:00,
2013-03-04 03:30:00,31.0,24.3,29.64,NW,306,2.0,2.0,76,0.00,,,0.00,Wunderground v.1.15,2013-03-04 08:30:00,
2013-03-04 03:40:00,30.9,23.9,29.64,SW,228,3.0,3.0,75,0.00,,,0.00,Wunderground v.1.15,2013-03-04 08:40:00,
2013-03-04 03:45:00,30.9,23.9,29.64,West,273,3.0,6.0,75,0.00,,,0.00,Wunderground v.1.15,2013-03-04 08:45:00,
2013-03-04 03:55:00,30.7,23.4,29.64,WNW,295,4.0,6.0,74,0.00,,,0.00,Wunderground v.1.15,2013-03-04 08:55:00,
2013-03-04 04:05:00,30.6,23.3,29.64,North,5,3.0,4.0,74,0.00,,,0.00,Wunderground v.1.15,2013-03-04 09:05:00,
2013-03-04 04:15:00,30.4,23.1,29.65,West,278,3.0,4.0,74,0.00,,,0.00,Wunderground v.1.15,2013-03-04 09:15:00,
2013-03-04 04:25:00,30.2,22.9,29.65,NNW,348,1.0,2.0,74,0.00,,,0.00,Wunderground v.1.15,2013-03-04 09:25:00,
2013-03-04 04:35:00,30.0,22.7,29.65,NNW,328,2.0,2.0,74,0.00,,,0.00,Wunderground v.1.15,2013-03-04 09:35:00,
2013-03-04 04:45:00,30.0,22.4,29.65,WNW,298,3.0,6.0,73,0.00,,,0.00,Wunderground v.1.15,2013-03-04 09:45:00,
2013-03-04 04:50:00,30.0,22.4,29.65,NW,311,3.0,3.0,73,0.00,,,0.00,Wunderground v.1.15,2013-03-04 09:50:00,
2013-03-04 04:59:00,29.9,22.0,29.65,NW,320,4.0,4.0,72,0.00,,,0.00,Wunderground v.1.15,2013-03-04 09:59:00,
2013-03-04 05:05:00,29.8,21.9,29.65,NW,314,3.0,4.0,72,0.00,,,0.00,Wunderground v.1.15,2013-03-04 10:05:00,
2013-03-04 05:15:00,29.6,22.0,29.65,NW,322,2.0,5.0,73,0.00,,,0.00,Wunderground v.1.15,2013-03-04 10:15:00,
2013-03-04 05:25:00,29.5,21.9,29.65,NNW,335,3.0,8.0,73,0.00,,,0.00,Wunderground v.1.15,2013-03-04 10:25:00,
2013-03-04 05:35:00,29.4,21.8,29.66,NW,322,4.0,12.0,73,0.00,,,0.00,Wunderground v.1.15,2013-03-04 10:35:00,
2013-03-04 05:40:00,29.3,21.4,29.66,NW,326,3.0,4.0,72,0.00,,,0.00,Wunderground v.1.15,2013-03-04 10:40:00,
2013-03-04 05:50:00,29.3,21.4,29.65,West,278,5.0,5.0,72,0.00,,,0.00,Wunderground v.1.15,2013-03-04 10:50:00,
2013-03-04 06:00:00,29.2,21.3,29.66,WNW,284,3.0,3.0,72,0.00,,,0.00,Wunderground v.1.15,2013-03-04 11:00:00,
2013-03-04 06:10:00,29.0,21.4,29.66,NW,309,3.0,3.0,73,0.00,,,0.00,Wunderground v.1.15,2013-03-04 11:10:00,
2013-03-04 06:15:00,29.0,21.4,29.66,WNW,302,3.0,4.0,73,0.00,,,0.00,Wunderground v.1.15,2013-03-04 11:15:00,
2013-03-04 06:20:00,28.9,21.3,29.66,NW,311,3.0,4.0,73,0.00,,,0.00,Wunderground v.1.15,2013-03-04 11:20:00,
2013-03-04 06:30:00,28.7,21.1,29.66,WSW,246,3.0,3.0,73,0.00,,,0.00,Wunderground v.1.15,2013-03-04 11:30:00,
2013-03-04 06:35:00,28.6,20.7,29.66,NNW,334,2.0,6.0,72,0.00,,,0.00,Wunderground v.1.15,2013-03-04 11:35:00,
2013-03-04 06:45:00,28.5,20.9,29.67,North,360,3.0,3.0,73,0.00,,,0.00,Wunderground v.1.15,2013-03-04 11:45:00,
2013-03-04 06:50:00,28.3,20.4,29.67,West,262,3.0,4.0,72,0.00,,,0.00,Wunderground v.1.15,2013-03-04 11:50:00,
2013-03-04 06:55:00,28.2,20.3,29.67,NNW,327,4.0,4.0,72,0.00,,,0.00,Wunderground v.1.15,2013-03-04 11:55:00,
2013-03-04 07:05:00,28.2,20.3,29.67,West,276,3.0,4.0,72,0.00,,,0.00,Wunderground v.1.15,2013-03-04 12:05:00,
2013-03-04 07:09:00,28.2,20.3,29.67,SSW,195,3.0,3.0,72,0.00,,,0.00,Wunderground v.1.15,2013-03-04 12:09:00,
2013-03-04 07:15:00,28.2,20.3,29.67,SW,218,3.0,3.0,72,0.00,,,0.00,Wunderground v.1.15,2013-03-04 12:15:00,
2013-03-04 07:20:00,28.2,20.0,29.67,ENE,73,3.0,3.0,71,0.00,,,0.00,Wunderground v.1.15,2013-03-04 12:20:00,
2013-03-04 07:25:00,28.3,20.1,29.67,West,269,3.0,3.0,71,0.00,,,0.00,Wunderground v.1.15,2013-03-04 12:25:00,
2013-03-04 07:30:00,28.5,20.3,29.67,WSW,257,3.0,3.0,71,0.00,,,0.00,Wunderground v.1.15,2013-03-04 12:30:00,
2013-03-04 07:40:00,28.8,20.2,29.68,WNW,290,2.0,2.0,70,0.00,,,0.00,Wunderground v.1.15,2013-03-04 12:40:00,
2013-03-04 07:50:00,29.1,20.2,29.67,WNW,284,3.0,4.0,69,0.00,,,0.00,Wunderground v.1.15,2013-03-04 12:50:00,
2013-03-04 07:55:00,29.3,20.4,29.67,West,276,4.0,4.0,69,0.00,,,0.00,Wunderground v.1.15,2013-03-04 12:55:00,
2013-03-04 07:59:00,29.5,20.6,29.67,West,269,4.0,4.0,69,0.00,,,0.00,Wunderground v.1.15,2013-03-04 12:59:00,
2013-03-04 08:04:00,29.6,20.3,29.67,WNW,283,4.0,4.0,68,0.00,,,0.00,Wunderground v.1.15,2013-03-04 13:04:00,
2013-03-04 08:10:00,29.7,20.4,29.67,WSW,250,4.0,9.0,68,0.00,,,0.00,Wunderground v.1.15,2013-03-04 13:10:00,
2013-03-04 08:20:00,30.1,20.5,29.67,West,271,5.0,5.0,67,0.00,,,0.00,Wunderground v.1.15,2013-03-04 13:20:00,
2013-03-04 08:25:00,30.5,20.8,29.66,WNW,295,5.0,5.0,67,0.00,,,0.00,Wunderground v.1.15,2013-03-04 13:25:00,
2013-03-04 08:30:00,30.8,20.8,29.66,WNW,290,4.0,4.0,66,0.00,,,0.00,Wunderground v.1.15,2013-03-04 13:30:00,
2013-03-04 08:40:00,31.4,21.3,29.66,SW,220,2.0,6.0,66,0.00,,,0.00,Wunderground v.1.15,2013-03-04 13:40:00,
2013-03-04 08:50:00,31.7,21.3,29.66,NW,326,4.0,14.0,65,0.00,,,0.00,Wunderground v.1.15,2013-03-04 13:50:00,
2013-03-04 09:00:00,32.2,21.4,29.66,NNW,344,4.0,5.0,64,0.00,,,0.00,Wunderground v.1.15,2013-03-04 14:00:00,
2013-03-04 09:05:00,32.7,21.9,29.66,NNW,327,4.0,5.0,64,0.00,,,0.00,Wunderground v.1.15,2013-03-04 14:05:00,
2013-03-04 09:10:00,33.2,22.0,29.65,WNW,300,4.0,5.0,63,0.00,,,0.00,Wunderground v.1.15,2013-03-04 14:10:00,
2013-03-04 09:20:00,33.8,21.8,29.65,West,262,4.0,5.0,61,0.00,,,0.00,Wunderground v.1.15,2013-03-04 14:20:00,
2013-03-04 09:30:00,33.8,21.8,29.65,NW,318,4.0,7.0,61,0.00,,,0.00,Wunderground v.1.15,2013-03-04 14:30:00,
2013-03-04 09:35:00,34.0,22.0,29.65,West,273,4.0,7.0,61,0.00,,,0.00,Wunderground v.1.15,2013-03-04 14:35:00,
2013-03-04 09:40:00,34.2,22.1,29.65,West,277,4.0,4.0,61,0.00,,,0.00,Wunderground v.1.15,2013-03-04 14:40:00,
2013-03-04 09:45:00,34.4,21.5,29.65,NW,304,4.0,7.0,59,0.00,,,0.00,Wunderground v.1.15,2013-03-04 14:45:00,
2013-03-04 09:50:00,34.7,21.8,29.65,North,351,5.0,6.0,59,0.00,,,0.00,Wunderground v.1.15,2013-03-04 14:50:00,
2013-03-04 09:55:00,34.9,22.0,29.65,North,360,4.0,6.0,59,0.00,,,0.00,Wunderground v.1.15,2013-03-04 14:55:00,
2013-03-04 10:05:00,35.0,21.7,29.65,SW,236,4.0,7.0,58,0.00,,,0.00,Wunderground v.1.15,2013-03-04 15:05:00,
2013-03-04 10:10:00,35.0,22.1,29.65,NNW,340,6.0,6.0,59,0.00,,,0.00,Wunderground v.1.15,2013-03-04 15:10:00,
2013-03-04 10:15:00,35.1,21.8,29.65,West,260,5.0,6.0,58,0.00,,,0.00,Wunderground v.1.15,2013-03-04 15:15:00,
2013-03-04 10:25:00,35.6,21.9,29.65,West,276,5.0,8.0,57,0.00,,,0.00,Wunderground v.1.15,2013-03-04 15:25:00,
2013-03-04 10:30:00,35.5,21.8,29.65,NW,311,5.0,5.0,57,0.00,,,0.00,Wunderground v.1.15,2013-03-04 15:30:00,
2013-03-04 10:35:00,35.8,21.6,29.64,NNW,338,4.0,5.0,56,0.00,,,0.00,Wunderground v.1.15,2013-03-04 15:35:00,
2013-03-04 10:40:00,36.0,22.2,29.65,NNE,18,3.0,3.0,57,0.00,,,0.00,Wunderground v.1.15,2013-03-04 15:40:00,
2013-03-04 10:45:00,36.5,22.3,29.64,WNW,283,4.0,7.0,56,0.00,,,0.00,Wunderground v.1.15,2013-03-04 15:45:00,
2013-03-04 10:50:00,36.6,22.4,29.64,West,264,5.0,5.0,56,0.00,,,0.00,Wunderground v.1.15,2013-03-04 15:50:00,
2013-03-04 11:00:00,36.1,21.9,29.64,NW,315,5.0,5.0,56,0.00,,,0.00,Wunderground v.1.15,2013-03-04 16:00:00,
2013-03-04 11:10:00,37.4,22.7,29.64,West,273,4.0,4.0,55,0.00,,,0.00,Wunderground v.1.15,2013-03-04 16:10:00,
2013-03-04 11:15:00,37.3,22.2,29.64,NE,55,5.0,6.0,54,0.00,,,0.00,Wunderground v.1.15,2013-03-04 16:15:00,
2013-03-04 11:25:00,36.7,22.0,29.64,West,268,3.0,7.0,55,0.00,,,0.00,Wunderground v.1.15,2013-03-04 16:25:00,
2013-03-04 11:30:00,36.7,22.0,29.64,NE,40,4.0,4.0,55,0.00,,,0.00,Wunderground v.1.15,2013-03-04 16:30:00,
2013-03-04 11:35:00,36.6,22.4,29.64,WNW,302,4.0,4.0,56,0.00,,,0.00,Wunderground v.1.15,2013-03-04 16:35:00,
2013-03-04 11:40:00,36.8,22.6,29.64,NNE,15,3.0,5.0,56,0.00,,,0.00,Wunderground v.1.15,2013-03-04 16:40:00,
2013-03-04 11:45:00,36.8,22.6,29.64,North,11,2.0,5.0,56,0.00,,,0.00,Wunderground v.1.15,2013-03-04 16:45:00,
2013-03-04 11:50:00,37.0,22.3,29.64,North,360,3.0,3.0,55,0.00,,,0.00,Wunderground v.1.15,2013-03-04 16:50:00,
2013-03-04 11:55:00,37.1,22.0,29.64,WSW,257,4.0,4.0,54,0.00,,,0.00,Wunderground v.1.15,2013-03-04 16:55:00,
2013-03-04 12:00:00,36.7,22.0,29.64,ENE,78,5.0,5.0,55,0.00,,,0.00,Wunderground v.1.15,2013-03-04 17:00:00,
2013-03-04 12:05:00,36.7,22.0,29.64,NNW,347,5.0,6.0,55,0.00,,,0.00,Wunderground v.1.15,2013-03-04 17:05:00,
2013-03-04 12:10:00,36.5,22.3,29.64,NNE,25,5.0,5.0,56,0.00,,,0.00,Wunderground v.1.15,2013-03-04 17:10:00,
2013-03-04 12:15:00,36.6,22.4,29.64,WNW,297,4.0,5.0,56,0.00,,,0.00,Wunderground v.1.15,2013-03-04 17:15:00,
2013-03-04 12:20:00,37.1,22.8,29.63,NW,313,3.0,4.0,56,0.00,,,0.00,Wunderground v.1.15,2013-03-04 17:20:00,
2013-03-04 12:30:00,36.8,21.7,29.63,NW,308,5.0,5.0,54,0.00,,,0.00,Wunderground v.1.15,2013-03-04 17:30:00,
2013-03-04 12:35:00,37.1,22.4,29.63,WNW,283,6.0,6.0,55,0.00,,,0.00,Wunderground v.1.15,2013-03-04 17:35:00,
2013-03-04 12:45:00,37.9,22.3,29.63,WSW,248,5.0,7.0,53,0.00,,,0.00,Wunderground v.1.15,2013-03-04 17:45:00,
2013-03-04 12:50:00,37.8,23.1,29.63,NNW,329,4.0,4.0,55,0.00,,,0.00,Wunderground v.1.15,2013-03-04 17:50:00,
2013-03-04 12:55:00,37.8,22.6,29.62,NW,325,4.0,4.0,54,0.00,,,0.00,Wunderground v.1.15,2013-03-04 17:55:00,
2013-03-04 13:00:00,37.7,22.5,29.62,NNE,30,5.0,5.0,54,0.00,,,0.00,Wunderground v.1.15,2013-03-04 18:00:00,
2013-03-04 13:10:00,37.7,23.4,29.62,WNW,293,4.0,4.0,56,0.00,,,0.00,Wunderground v.1.15,2013-03-04 18:10:00,
2013-03-04 13:15:00,38.3,23.5,29.62,WNW,296,3.0,4.0,55,0.00,,,0.00,Wunderground v.1.15,2013-03-04 18:15:00,
2013-03-04 13:25:00,38.3,23.5,29.62,WSW,246,4.0,7.0,55,0.00,,,0.00,Wunderground v.1.15,2013-03-04 18:25:00,
2013-03-04 13:30:00,38.4,23.2,29.62,WSW,248,5.0,5.0,54,0.00,,,0.00,Wunderground v.1.15,2013-03-04 18:30:00,
2013-03-04 13:35:00,38.7,23.9,29.62,NW,304,4.0,9.0,55,0.00,,,0.00,Wunderground v.1.15,2013-03-04 18:35:00,
2013-03-04 13:40:00,38.5,23.7,29.62,NNE,20,4.0,4.0,55,0.00,,,0.00,Wunderground v.1.15,2013-03-04 18:40:00,
2013-03-04 13:50:00,38.4,24.1,29.62,WNW,287,4.0,4.0,56,0.00,,,0.00,Wunderground v.1.15,2013-03-04 18:50:00,
2013-03-04 13:55:00,38.8,24.0,29.62,NW,304,4.0,4.0,55,0.00,,,0.00,Wunderground v.1.15,2013-03-04 18:55:00,
2013-03-04 14:00:00,38.9,23.7,29.62,WNW,300,4.0,9.0,54,0.00,,,0.00,Wunderground v.1.15,2013-03-04 19:00:00,
2013-03-04 14:10:00,38.9,24.1,29.62,WNW,293,5.0,9.0,55,0.00,,,0.00,Wunderground v.1.15,2013-03-04 19:10:00,
2013-03-04 14:15:00,38.7,23.9,29.62,NW,315,4.0,9.0,55,0.00,,,0.00,Wunderground v.1.15,2013-03-04 19:15:00,
2013-03-04 14:25:00,38.4,24.1,29.62,NW,321,5.0,11.0,56,0.00,,,0.00,Wunderground v.1.15,2013-03-04 19:25:00,
2013-03-04 14:35:00,38.0,23.7,29.62,West,259,5.0,6.0,56,0.00,,,0.00,Wunderground v.1.15,2013-03-04 19:35:00,
2013-03-04 14:40:00,38.0,23.7,29.63,NNW,335,4.0,9.0,56,0.00,,,0.00,Wunderground v.1.15,2013-03-04 19:40:00,
2013-03-04 14:45:00,38.1,23.3,29.63,NW,319,5.0,9.0,55,0.00,,,0.00,Wunderground v.1.15,2013-03-04 19:45:00,
2013-03-04 14:55:00,38.3,23.5,29.63,West,271,4.0,5.0,55,0.00,,,0.00,Wunderground v.1.15,2013-03-04 19:55:00,
2013-03-04 15:05:00,38.3,24.4,29.63,West,266,4.0,5.0,57,0.00,,,0.00,Wunderground v.1.15,2013-03-04 20:05:00,
2013-03-04 15:10:00,37.8,24.3,29.63,WNW,295,5.0,8.0,58,0.00,,,0.00,Wunderground v.1.15,2013-03-04 20:10:00,
2013-03-04 15:15:00,37.5,25.3,29.63,NNW,332,5.0,8.0,61,0.00,,,0.00,Wunderground v.1.15,2013-03-04 20:15:00,
2013-03-04 15:25:00,36.6,24.8,29.63,NNW,340,6.0,6.0,62,0.00,,,0.00,Wunderground v.1.15,2013-03-04 20:25:00,
2013-03-04 15:35:00,36.3,24.5,29.63,NW,319,5.0,12.0,62,0.00,,,0.00,Wunderground v.1.15,2013-03-04 20:35:00,
2013-03-04 15:40:00,36.2,24.4,29.64,NW,325,6.0,6.0,62,0.00,,,0.00,Wunderground v.1.15,2013-03-04 20:40:00,
2013-03-04 15:45:00,36.2,24.4,29.63,WNW,295,5.0,8.0,62,0.00,,,0.00,Wunderground v.1.15,2013-03-04 20:45:00,
2013-03-04 15:55:00,36.5,24.7,29.64,NW,326,3.0,7.0,62,0.00,,,0.00,Wunderground v.1.15,2013-03-04 20:55:00,
2013-03-04 16:05:00,36.9,24.7,29.63,NNW,338,3.0,3.0,61,0.00,,,0.00,Wunderground v.1.15,2013-03-04 21:05:00,
2013-03-04 16:10:00,37.1,24.5,29.64,NNE,12,2.0,8.0,60,0.00,,,0.00,Wunderground v.1.15,2013-03-04 21:10:00,
2013-03-04 16:15:00,37.2,24.2,29.64,WNW,302,4.0,8.0,59,0.00,,,0.00,Wunderground v.1.15,2013-03-04 21:15:00,
2013-03-04 16:25:00,37.5,24.5,29.64,NW,319,5.0,10.0,59,0.00,,,0.00,Wunderground v.1.15,2013-03-04 21:25:00,
2013-03-04 16:35:00,37.4,24.4,29.64,North,356,5.0,6.0,59,0.00,,,0.00,Wunderground v.1.15,2013-03-04 21:35:00,
2013-03-04 16:39:00,37.4,24.8,29.64,WNW,297,5.0,5.0,60,0.00,,,0.00,Wunderground v.1.15,2013-03-04 21:39:00,
2013-03-04 16:45:00,37.1,24.5,29.65,West,281,5.0,10.0,60,0.00,,,0.00,Wunderground v.1.15,2013-03-04 21:45:00,
2013-03-04 16:50:00,36.7,24.5,29.65,NNE,29,5.0,5.0,61,0.00,,,0.00,Wunderground v.1.15,2013-03-04 21:50:00,
2013-03-04 16:55:00,36.4,24.6,29.65,WSW,257,5.0,5.0,62,0.00,,,0.00,Wunderground v.1.15,2013-03-04 21:55:00,
2013-03-04 17:05:00,36.1,24.7,29.66,NW,304,4.0,4.0,63,0.00,,,0.00,Wunderground v.1.15,2013-03-04 22:05:00,
2013-03-04 17:15:00,35.5,24.9,29.66,NNW,340,6.0,10.0,65,0.00,,,0.00,Wunderground v.1.15,2013-03-04 22:15:00,
2013-03-04 17:25:00,35.3,25.1,29.67,West,273,4.0,8.0,66,0.00,,,0.00,Wunderground v.1.15,2013-03-04 22:25:00,
2013-03-04 17:35:00,35.1,24.5,29.67,NNW,334,3.0,7.0,65,0.00,,,0.00,Wunderground v.1.15,2013-03-04 22:35:00,
2013-03-04 17:45:00,34.9,25.0,29.68,West,264,6.0,15.0,67,0.00,,,0.00,Wunderground v.1.15,2013-03-04 22:45:00,
2013-03-04 17:50:00,34.7,25.2,29.68,NNW,337,6.0,6.0,68,0.00,,,0.00,Wunderground v.1.15,2013-03-04 22:50:00,
2013-03-04 17:55:00,34.4,25.3,29.69,NNW,345,5.0,6.0,69,0.00,,,0.00,Wunderground v.1.15,2013-03-04 22:55:00,
2013-03-04 18:05:00,33.9,25.8,29.69,NW,307,4.0,9.0,72,0.00,,,0.00,Wunderground v.1.15,2013-03-04 23:05:00,
2013-03-04 18:15:00,33.6,25.9,29.70,NW,319,4.0,6.0,73,0.00,,,0.00,Wunderground v.1.15,2013-03-04 23:15:00,
2013-03-04 18:25:00,33.4,26.0,29.70,North,349,3.0,5.0,74,0.00,,,0.00,Wunderground v.1.15,2013-03-04 23:25:00,
2013-03-04 18:35:00,33.3,26.2,29.70,West,278,2.0,3.0,75,0.00,,,0.00,Wunderground v.1.15,2013-03-04 23:35:00,
2013-03-04 18:40:00,33.2,26.1,29.71,NNW,345,2.0,2.0,75,0.00,,,0.00,Wunderground v.1.15,2013-03-04 23:40:00,
2013-03-04 18:50:00,33.2,26.1,29.71,North,356,2.0,2.0,75,0.00,,,0.00,Wunderground v.1.15,2013-03-04 23:50:00,
2013-03-04 19:00:00,33.0,26.3,29.71,NNW,347,1.0,2.0,76,0.00,,,0.00,Wunderground v.1.15,2013-03-05 00:00:00,
2013-03-04 19:10:00,33.1,25.7,29.71,WNW,295,3.0,8.0,74,0.00,,,0.00,Wunderground v.1.15,2013-03-05 00:10:00,
2013-03-04 19:20:00,33.1,25.7,29.71,West,274,3.0,4.0,74,0.00,,,0.00,Wunderground v.1.15,2013-03-05 00:20:00,
2013-03-04 19:29:00,33.1,25.4,29.71,ESE,105,3.0,3.0,73,0.00,,,0.00,Wunderground v.1.15,2013-03-05 00:29:00,
2013-03-04 19:35:00,33.2,25.1,29.71,West,273,3.0,5.0,72,0.00,,,0.00,Wunderground v.1.15,2013-03-05 00:35:00,
2013-03-04 19:45:00,33.3,24.9,29.72,WNW,299,4.0,4.0,71,0.00,,,0.00,Wunderground v.1.15,2013-03-05 00:45:00,
2013-03-04 19:55:00,33.4,24.7,29.72,West,281,3.0,4.0,70,0.00,,,0.00,Wunderground v.1.15,2013-03-05 00:55:00,
2013-03-04 20:05:00,33.5,24.4,29.72,SSE,162,3.0,4.0,69,0.00,,,0.00,Wunderground v.1.15,2013-03-05 01:05:00,
2013-03-04 20:15:00,33.4,24.3,29.73,WNW,294,2.0,3.0,69,0.00,,,0.00,Wunderground v.1.15,2013-03-05 01:15:00,
2013-03-04 20:25:00,33.5,24.4,29.73,NNE,32,2.0,8.0,69,0.00,,,0.00,Wunderground v.1.15,2013-03-05 01:25:00,
2013-03-04 20:35:00,33.6,24.5,29.73,NE,45,3.0,3.0,69,0.00,,,0.00,Wunderground v.1.15,2013-03-05 01:35:00,
2013-03-04 20:45:00,33.6,24.5,29.74,NNE,13,2.0,4.0,69,0.00,,,0.00,Wunderground v.1.15,2013-03-05 01:45:00,
2013-03-04 20:55:00,33.6,24.5,29.74,NE,50,3.0,5.0,69,0.00,,,0.00,Wunderground v.1.15,2013-03-05 01:55:00,
2013-03-04 21:00:00,33.5,24.4,29.74,NNW,330,3.0,3.0,69,0.00,,,0.00,Wunderground v.1.15,2013-03-05 02:00:00,
2013-03-04 21:10:00,33.4,24.3,29.74,WNW,297,3.0,8.0,69,0.00,,,0.00,Wunderground v.1.15,2013-03-05 02:10:00,
2013-03-04 21:20:00,33.3,24.6,29.74,NW,314,3.0,3.0,70,0.00,,,0.00,Wunderground v.1.15,2013-03-05 02:20:00,
2013-03-04 21:30:00,33.1,24.4,29.75,NW,318,3.0,7.0,70,0.00,,,0.00,Wunderground v.1.15,2013-03-05 02:30:00,
2013-03-04 21:39:00,33.0,24.3,29.75,NNE,15,4.0,4.0,70,0.00,,,0.00,Wunderground v.1.15,2013-03-05 02:39:00,
2013-03-04 21:45:00,32.9,24.2,29.75,NNW,328,3.0,4.0,70,0.00,,,0.00,Wunderground v.1.15,2013-03-05 02:45:00,
2013-03-04 21:50:00,32.7,24.0,29.75,North,11,2.0,2.0,70,0.00,,,0.00,Wunderground v.1.15,2013-03-05 02:50:00,
2013-03-04 22:00:00,32.6,23.9,29.76,ENE,67,3.0,5.0,70,0.00,,,0.00,Wunderground v.1.15,2013-03-05 03:00:00,
2013-03-04 22:05:00,32.5,23.8,29.76,WNW,298,3.0,5.0,70,0.00,,,0.00,Wunderground v.1.15,2013-03-05 03:05:00,
2013-03-04 22:15:00,32.4,23.7,29.76,West,278,3.0,3.0,70,0.00,,,0.00,Wunderground v.1.15,2013-03-05 03:15:00,
2013-03-04 22:20:00,32.4,23.7,29.76,ESE,121,3.0,3.0,70,0.00,,,0.00,Wunderground v.1.15,2013-03-05 03:20:00,
2013-03-04 22:25:00,32.3,23.6,29.76,ENE,59,3.0,3.0,70,0.00,,,0.00,Wunderground v.1.15,2013-03-05 03:25:00,
2013-03-04 22:35:00,32.3,23.6,29.76,WNW,297,3.0,3.0,70,0.00,,,0.00,Wunderground v.1.15,2013-03-05 03:35:00,
2013-03-04 22:39:00,32.3,23.6,29.77,NNE,19,3.0,6.0,70,0.00,,,0.00,Wunderground v.1.15,2013-03-05 03:39:00,
2013-03-04 22:45:00,32.3,23.6,29.77,North,8,4.0,6.0,70,0.00,,,0.00,Wunderground v.1.15,2013-03-05 03:45:00,
2013-03-04 22:50:00,32.3,23.6,29.77,West,278,4.0,6.0,70,0.00,,,0.00,Wunderground v.1.15,2013-03-05 03:50:00,
2013-03-04 22:55:00,32.2,23.5,29.77,NW,313,3.0,6.0,70,0.00,,,0.00,Wunderground v.1.15,2013-03-05 03:55:00,
2013-03-04 23:05:00,32.1,23.4,29.77,NNE,26,3.0,7.0,70,0.00,,,0.00,Wunderground v.1.15,2013-03-05 04:05:00,
2013-03-04 23:10:00,32.0,23.3,29.77,ENE,68,2.0,2.0,70,0.00,,,0.00,Wunderground v.1.15,2013-03-05 04:10:00,
2013-03-04 23:15:00,31.9,23.2,29.77,NW,315,2.0,4.0,70,0.00,,,0.00,Wunderground v.1.15,2013-03-05 04:15:00,
2013-03-04 23:25:00,31.9,23.2,29.77,NW,315,3.0,3.0,70,0.00,,,0.00,Wunderground v.1.15,2013-03-05 04:25:00,
2013-03-04 23:34:00,31.8,23.1,29.77,NE,55,3.0,3.0,70,0.00,,,0.00,Wunderground v.1.15,2013-03-05 04:34:00,
2013-03-04 23:40:00,31.7,23.0,29.77,NNE,29,2.0,2.0,70,0.00,,,0.00,Wunderground v.1.15,2013-03-05 04:40:00,
2013-03-04 23:50:00,31.6,23.3,29.78,North,358,2.0,4.0,71,0.00,,,0.00,Wunderground v.1.15,2013-03-05 04:50:00,
2013-03-04 23:55:00,31.6,22.9,29.78,ENE,73,3.0,4.0,70,0.00,,,0.00,Wunderground v.1.15,2013-03-05 04:55:00,